createdAt,value
2018-05-02T00:01:43.759Z,99.90
2018-05-02T00:06:17.720Z,99.90
2018-05-02T00:10:50.927Z,99.90
2018-05-02T00:15:24.091Z,99.90
2018-05-02T00:19:57.282Z,99.90
2018-05-02T00:24:30.477Z,99.90
2018-05-02T00:29:03.678Z,99.90
2018-05-02T00:33:36.867Z,99.90
2018-05-02T00:38:10.063Z,99.90
2018-05-02T00:42:43.250Z,99.90
2018-05-02T00:47:16.438Z,99.90
2018-05-02T00:51:50.370Z,99.90
2018-05-02T00:56:24.366Z,99.90
2018-05-02T01:00:58.325Z,99.90
2018-05-02T01:05:32.273Z,99.90
2018-05-02T01:10:05.444Z,99.90
2018-05-02T01:14:39.415Z,99.90
2018-05-02T01:19:12.582Z,99.90
2018-05-02T01:23:46.534Z,99.90
2018-05-02T01:28:19.741Z,99.90
2018-05-02T01:32:52.937Z,99.90
2018-05-02T01:37:26.117Z,99.90
2018-05-02T01:42:00.067Z,99.90
2018-05-02T01:46:33.270Z,99.90
2018-05-02T01:51:06.473Z,99.90
2018-05-02T01:55:39.634Z,99.90
2018-05-02T02:00:12.817Z,99.90
2018-05-02T02:04:46.005Z,99.90
2018-05-02T02:09:19.181Z,99.90
2018-05-02T02:13:53.124Z,99.90
2018-05-02T02:18:26.414Z,99.90
2018-05-02T02:23:00.365Z,99.90
2018-05-02T02:27:33.551Z,99.90
2018-05-02T02:32:07.483Z,99.90
2018-05-02T02:36:40.676Z,99.90
2018-05-02T02:41:14.630Z,99.90
2018-05-02T02:45:47.786Z,99.90
2018-05-02T02:50:20.987Z,99.90
2018-05-02T02:54:54.185Z,99.90
2018-05-02T02:59:27.381Z,99.90
2018-05-02T03:04:00.570Z,99.90
2018-05-02T03:08:33.774Z,99.90
2018-05-02T03:13:08.031Z,99.90
2018-05-02T03:17:41.218Z,99.90
2018-05-02T03:22:14.745Z,99.90
2018-05-02T03:26:47.938Z,99.90
2018-05-02T03:31:21.110Z,99.90
2018-05-02T03:35:55.061Z,99.90
2018-05-02T03:40:28.259Z,99.90
2018-05-02T03:45:01.553Z,99.90
2018-05-02T03:49:34.741Z,99.90
2018-05-02T03:54:08.686Z,99.90
2018-05-02T03:58:41.869Z,99.90
2018-05-02T04:03:27.893Z,99.90
2018-05-02T04:08:01.858Z,99.90
2018-05-02T04:12:35.038Z,99.90
2018-05-02T04:17:08.248Z,99.90
2018-05-02T04:21:41.418Z,99.90
2018-05-02T04:26:15.381Z,99.90
2018-05-02T04:30:48.569Z,99.90
2018-05-02T04:35:21.779Z,99.90
2018-05-02T04:39:54.945Z,99.90
2018-05-02T04:44:28.140Z,99.90
2018-05-02T04:49:01.340Z,99.90
2018-05-02T04:53:34.538Z,99.90
2018-05-02T04:58:07.730Z,99.90
2018-05-02T05:02:41.632Z,99.90
2018-05-02T05:07:15.090Z,99.90
2018-05-02T05:11:48.293Z,99.90
2018-05-02T05:16:21.461Z,99.90
2018-05-02T05:20:54.655Z,99.90
2018-05-02T05:25:28.614Z,99.90
2018-05-02T05:30:02.326Z,99.90
2018-05-02T05:34:40.723Z,99.90
2018-05-02T05:39:16.616Z,99.90
2018-05-02T05:43:49.898Z,99.90
2018-05-02T05:48:23.103Z,99.90
2018-05-02T05:52:57.059Z,99.90
2018-05-02T05:57:30.268Z,99.90
2018-05-02T06:02:03.511Z,99.90
2018-05-02T06:06:37.767Z,99.90
2018-05-02T06:11:10.898Z,99.90
2018-05-02T06:15:44.098Z,99.90
2018-05-02T06:20:18.030Z,99.90
2018-05-02T06:24:51.234Z,99.90
2018-05-02T06:29:24.426Z,99.90
2018-05-02T06:33:58.374Z,99.90
2018-05-02T06:38:31.583Z,99.90
2018-05-02T06:43:04.751Z,99.90
2018-05-02T06:47:37.955Z,99.90
2018-05-02T06:52:11.127Z,99.90
2018-05-02T06:56:44.331Z,99.90
2018-05-02T07:01:17.534Z,99.90
2018-05-02T07:05:50.758Z,99.90
2018-05-02T07:10:23.974Z,99.90
2018-05-02T07:14:57.172Z,99.10
2018-05-02T07:19:30.411Z,98.70
2018-05-02T07:24:04.431Z,97.00
2018-05-02T07:28:37.568Z,97.00
2018-05-02T07:33:10.762Z,96.00
2018-05-02T07:37:43.958Z,94.30
2018-05-02T07:42:17.913Z,93.00
2018-05-02T07:46:51.126Z,93.00
2018-05-02T07:51:24.327Z,90.50
2018-05-02T07:55:57.538Z,87.40
2018-05-02T08:00:30.738Z,85.00
2018-05-02T08:05:03.975Z,80.90
2018-05-02T08:09:37.181Z,76.40
2018-05-02T08:14:10.382Z,72.70
2018-05-02T08:18:43.647Z,75.00
2018-05-02T08:23:16.918Z,76.40
2018-05-02T08:27:50.122Z,78.30
2018-05-02T08:32:23.318Z,72.90
2018-05-02T08:36:57.311Z,69.80
2018-05-02T08:41:30.506Z,69.70
2018-05-02T08:46:03.701Z,67.60
2018-05-02T08:50:37.720Z,65.00
2018-05-02T08:55:11.689Z,63.00
2018-05-02T08:59:44.855Z,62.80
2018-05-02T09:04:19.075Z,54.90
2018-05-02T09:08:52.664Z,54.80
2018-05-02T09:13:25.866Z,53.60
2018-05-02T09:17:59.105Z,55.10
2018-05-02T09:22:33.070Z,53.40
2018-05-02T09:27:06.235Z,52.80
2018-05-02T09:31:40.199Z,51.30
2018-05-02T09:36:13.399Z,51.20
2018-05-02T09:40:46.593Z,51.20
2018-05-02T09:45:19.811Z,50.20
2018-05-02T09:49:52.982Z,47.50
2018-05-02T09:54:26.176Z,46.50
2018-05-02T09:59:00.146Z,43.10
2018-05-02T10:03:33.735Z,43.10
2018-05-02T10:08:07.681Z,38.70
2018-05-02T10:12:40.985Z,38.60
2018-05-02T10:17:14.095Z,39.70
2018-05-02T10:21:47.285Z,40.80
2018-05-02T10:26:21.323Z,42.70
2018-05-02T10:30:54.494Z,42.70
2018-05-02T10:35:29.201Z,46.30
2018-05-02T10:40:02.419Z,46.30
2018-05-02T10:44:35.582Z,47.10
2018-05-02T10:49:08.774Z,49.10
2018-05-02T10:53:42.897Z,52.60
2018-05-02T10:58:16.926Z,51.10
2018-05-02T11:02:51.154Z,46.90
2018-05-02T11:07:25.873Z,45.70
2018-05-02T11:11:59.141Z,45.70
2018-05-02T11:16:32.618Z,44.70
2018-05-02T11:21:06.848Z,48.20
2018-05-02T11:25:40.976Z,51.40
2018-05-02T11:30:15.357Z,50.10
2018-05-02T11:34:48.748Z,50.00
2018-05-02T11:39:23.073Z,51.10
2018-05-02T11:43:56.394Z,50.60
2018-05-02T11:48:30.468Z,51.50
2018-05-02T11:53:03.724Z,51.40
2018-05-02T11:57:37.186Z,53.30
2018-05-02T12:02:10.449Z,52.60
2018-05-02T12:06:44.065Z,52.90
2018-05-02T12:11:17.373Z,52.30
2018-05-02T12:15:50.633Z,52.30
2018-05-02T12:20:23.893Z,52.00
2018-05-02T12:24:57.378Z,51.40
2018-05-02T12:29:31.441Z,51.70
2018-05-02T12:34:05.532Z,51.70
2018-05-02T12:38:39.373Z,52.00
2018-05-02T12:43:12.814Z,51.20
2018-05-02T12:47:46.406Z,51.00
2018-05-02T12:52:19.717Z,52.00
2018-05-02T12:56:53.601Z,49.60
2018-05-02T13:01:28.391Z,50.30
2018-05-02T13:06:01.791Z,50.20
2018-05-02T13:10:35.653Z,49.20
2018-05-02T13:15:08.997Z,48.90
2018-05-02T13:19:43.017Z,49.00
2018-05-02T13:24:17.269Z,49.50
2018-05-02T13:28:50.561Z,49.50
2018-05-02T13:33:24.572Z,50.10
2018-05-02T13:37:57.925Z,50.10
2018-05-02T13:42:31.316Z,51.10
2018-05-02T13:47:05.330Z,51.70
2018-05-02T13:51:39.381Z,51.90
2018-05-02T13:56:12.670Z,51.80
2018-05-02T14:00:47.084Z,52.00
2018-05-02T14:05:20.517Z,52.00
2018-05-02T14:09:54.505Z,49.90
2018-05-02T14:14:27.666Z,49.80
2018-05-02T14:19:00.918Z,49.50
2018-05-02T14:23:34.071Z,49.20
2018-05-02T14:28:07.278Z,48.90
2018-05-02T14:32:41.287Z,50.50
2018-05-02T14:37:15.273Z,50.00
2018-05-02T14:41:48.528Z,49.90
2018-05-02T14:46:22.516Z,50.10
2018-05-02T14:50:55.690Z,50.00
2018-05-02T14:55:29.244Z,50.10
2018-05-02T15:00:02.415Z,51.00
2018-05-02T15:04:35.643Z,52.00
2018-05-02T15:09:08.863Z,52.70
2018-05-02T15:13:42.080Z,52.10
2018-05-02T15:18:15.249Z,51.70
2018-05-02T15:22:48.458Z,50.90
2018-05-02T15:27:21.627Z,50.80
2018-05-02T15:31:55.598Z,51.10
2018-05-02T15:36:28.769Z,51.60
2018-05-02T15:41:02.005Z,51.80
2018-05-02T15:45:35.169Z,52.90
2018-05-02T15:50:09.153Z,52.80
2018-05-02T15:54:42.315Z,52.80
2018-05-02T15:59:18.977Z,53.80
2018-05-02T16:03:52.776Z,54.50
2018-05-02T16:08:26.418Z,55.10
2018-05-02T16:13:00.386Z,55.30
2018-05-02T16:17:34.029Z,55.30
2018-05-02T16:22:07.331Z,55.80
2018-05-02T16:26:40.472Z,55.80
2018-05-02T16:31:14.443Z,56.60
2018-05-02T16:35:47.606Z,56.10
2018-05-02T16:40:21.567Z,57.50
2018-05-02T16:44:54.798Z,57.50
2018-05-02T16:49:27.965Z,59.50
2018-05-02T16:54:01.195Z,59.50
2018-05-02T16:58:34.490Z,59.30
2018-05-02T17:03:07.876Z,60.10
2018-05-02T17:07:40.955Z,62.00
2018-05-02T17:12:14.154Z,64.10
2018-05-02T17:16:47.402Z,66.00
2018-05-02T17:21:20.561Z,67.30
2018-05-02T17:25:53.902Z,69.60
2018-05-02T17:30:27.830Z,73.30
2018-05-02T17:35:01.799Z,76.60
2018-05-02T17:39:34.969Z,76.60
2018-05-02T17:44:08.934Z,86.10
2018-05-02T17:48:42.186Z,86.00
2018-05-02T17:53:15.415Z,88.20
2018-05-02T17:57:48.621Z,89.90
2018-05-02T18:02:21.837Z,90.90
2018-05-02T18:06:54.998Z,92.40
2018-05-02T18:11:29.135Z,93.00
2018-05-02T18:16:02.417Z,93.30
2018-05-02T18:20:35.535Z,94.10
2018-05-02T18:25:08.736Z,94.00
2018-05-02T18:29:41.949Z,94.20
2018-05-02T18:34:15.122Z,95.20
2018-05-02T18:38:48.506Z,95.90
2018-05-02T18:43:21.739Z,96.10
2018-05-02T18:47:54.934Z,96.40
2018-05-02T18:52:28.125Z,96.50
2018-05-02T18:57:02.078Z,97.10
2018-05-02T19:01:36.875Z,97.10
2018-05-02T19:06:10.159Z,97.60
2018-05-02T19:10:43.347Z,97.90
2018-05-02T19:15:16.530Z,98.10
2018-05-02T19:19:55.414Z,98.40
2018-05-02T19:24:34.318Z,98.80
2018-05-02T19:29:07.524Z,98.80
2018-05-02T19:33:46.333Z,98.90
2018-05-02T19:38:20.301Z,99.20
2018-05-02T19:42:59.210Z,99.20
2018-05-02T19:47:32.432Z,99.40
2018-05-02T19:52:11.332Z,99.50
2018-05-02T19:56:45.339Z,99.90
2018-05-02T20:01:24.333Z,99.90
2018-05-02T20:05:57.556Z,99.90
2018-05-02T20:10:36.630Z,99.90
2018-05-02T20:15:09.858Z,99.90
2018-05-02T20:19:43.889Z,99.90
2018-05-02T20:24:17.159Z,99.90
2018-05-02T20:28:50.436Z,99.90
2018-05-02T20:33:23.679Z,99.90
2018-05-02T20:37:56.882Z,99.90
2018-05-02T20:42:30.760Z,99.90
2018-05-02T20:47:04.167Z,99.90
2018-05-02T20:51:37.377Z,99.90
2018-05-02T20:56:10.555Z,99.90
2018-05-02T21:00:43.750Z,99.90
2018-05-02T21:05:16.915Z,99.90
2018-05-02T21:09:50.099Z,99.90
2018-05-02T21:14:24.126Z,99.90
2018-05-02T21:18:57.263Z,99.90
2018-05-02T21:23:30.471Z,99.90
2018-05-02T21:28:03.646Z,99.90
2018-05-02T21:32:36.839Z,99.90
2018-05-02T21:37:10.806Z,99.90
2018-05-02T21:41:44.046Z,99.90
2018-05-02T21:46:17.264Z,99.90
2018-05-02T21:50:50.459Z,99.90
2018-05-02T21:55:23.681Z,99.90
2018-05-02T21:59:57.645Z,99.90
2018-05-02T22:04:30.843Z,99.90
2018-05-02T22:09:04.043Z,99.90
2018-05-02T22:13:37.253Z,99.90
2018-05-02T22:18:10.418Z,99.90
2018-05-02T22:22:43.621Z,99.90
2018-05-02T22:27:16.817Z,99.90
2018-05-02T22:31:50.015Z,99.90
2018-05-02T22:36:23.219Z,99.90
2018-05-02T22:40:56.394Z,99.90
2018-05-02T22:45:29.607Z,99.90
2018-05-02T22:50:02.777Z,99.90
2018-05-02T22:54:35.981Z,99.90
2018-05-02T22:59:09.159Z,99.90
2018-05-02T23:03:42.354Z,99.90
2018-05-02T23:08:15.586Z,99.90
2018-05-02T23:12:48.809Z,99.90
2018-05-02T23:17:22.758Z,99.90
2018-05-02T23:21:55.951Z,99.90
2018-05-02T23:26:29.909Z,99.90
2018-05-02T23:31:03.112Z,99.90
2018-05-02T23:35:36.283Z,99.90
2018-05-02T23:40:10.227Z,99.90
2018-05-02T23:44:43.435Z,99.90
2018-05-02T23:49:16.764Z,99.90
2018-05-02T23:53:49.970Z,99.90
2018-05-02T23:58:23.137Z,99.90
